createdAt,value
2018-03-11T00:00:36.245Z,21.43
2018-03-11T00:03:05.619Z,22.20
2018-03-11T00:05:34.594Z,22.00
2018-03-11T00:08:03.587Z,23.97
2018-03-11T00:10:33.300Z,23.17
2018-03-11T00:13:02.244Z,21.47
2018-03-11T00:15:32.707Z,20.67
2018-03-11T00:18:01.738Z,22.27
2018-03-11T00:20:31.100Z,23.27
2018-03-11T00:23:00.132Z,23.00
2018-03-11T00:25:29.112Z,22.30
2018-03-11T00:27:58.475Z,22.60
2018-03-11T00:30:27.444Z,23.43
2018-03-11T00:32:56.841Z,24.10
2018-03-11T00:35:25.832Z,24.27
2018-03-11T00:37:55.548Z,24.00
2018-03-11T00:40:24.528Z,23.37
2018-03-11T00:42:53.603Z,22.60
2018-03-11T00:45:22.560Z,21.47
2018-03-11T00:47:51.539Z,24.23
2018-03-11T00:50:21.289Z,23.20
2018-03-11T00:52:50.759Z,24.47
2018-03-11T00:55:20.108Z,22.10
2018-03-11T00:57:49.453Z,23.60
2018-03-11T01:00:19.209Z,22.10
2018-03-11T01:02:48.181Z,23.87
2018-03-11T01:05:17.660Z,22.90
2018-03-11T01:07:47.359Z,25.40
2018-03-11T01:10:16.753Z,24.30
2018-03-11T01:12:45.695Z,23.87
2018-03-11T01:15:15.475Z,24.90
2018-03-11T01:17:45.275Z,24.93
2018-03-11T01:20:14.217Z,25.50
2018-03-11T01:22:43.182Z,24.70
2018-03-11T01:25:12.570Z,26.10
2018-03-11T01:27:42.366Z,25.73
2018-03-11T01:30:11.706Z,24.30
2018-03-11T01:32:40.698Z,25.17
2018-03-11T01:35:09.650Z,23.50
2018-03-11T01:37:38.609Z,24.33
2018-03-11T01:40:07.650Z,24.70
2018-03-11T01:42:36.600Z,26.37
2018-03-11T01:45:05.639Z,25.40
2018-03-11T01:47:35.384Z,25.37
2018-03-11T01:50:04.418Z,24.90
2018-03-11T01:52:33.658Z,25.53
2018-03-11T01:55:02.631Z,25.50
2018-03-11T01:57:33.441Z,24.60
2018-03-11T02:00:02.431Z,24.13
2018-03-11T02:02:31.808Z,22.47
2018-03-11T02:05:01.568Z,22.90
2018-03-11T02:07:31.292Z,23.40
2018-03-11T02:10:00.244Z,24.00
2018-03-11T02:12:29.345Z,24.30
2018-03-11T02:14:58.686Z,23.57
2018-03-11T02:17:27.658Z,24.63
2018-03-11T02:19:57.433Z,22.80
2018-03-11T02:22:26.792Z,24.73
2018-03-11T02:24:56.492Z,22.83
2018-03-11T02:27:25.496Z,23.20
2018-03-11T02:29:54.467Z,22.80
2018-03-11T02:32:24.227Z,22.23
2018-03-11T02:34:54.368Z,22.70
2018-03-11T02:37:23.485Z,22.93
2018-03-11T02:39:53.233Z,23.10
2018-03-11T02:42:23.325Z,24.73
2018-03-11T02:44:53.130Z,25.20
2018-03-11T02:47:22.324Z,22.50
2018-03-11T02:49:51.713Z,25.20
2018-03-11T02:52:21.473Z,24.00
2018-03-11T02:54:50.469Z,25.50
2018-03-11T02:57:20.603Z,28.67
2018-03-11T02:59:49.577Z,27.70
2018-03-11T03:02:18.544Z,28.20
2018-03-11T03:04:47.898Z,30.37
2018-03-11T03:07:18.414Z,30.03
2018-03-11T03:09:47.769Z,32.70
2018-03-11T03:12:18.416Z,36.90
2018-03-11T03:14:47.764Z,37.10
2018-03-11T03:17:17.506Z,42.13
2018-03-11T03:19:46.491Z,41.93
2018-03-11T03:22:16.499Z,47.57
2018-03-11T03:24:45.587Z,49.03
2018-03-11T03:27:14.960Z,49.70
2018-03-11T03:29:43.970Z,50.07
2018-03-11T03:32:12.924Z,52.80
2018-03-11T03:34:42.278Z,49.77
2018-03-11T03:37:11.279Z,48.50
2018-03-11T03:39:40.226Z,45.07
2018-03-11T03:42:09.216Z,47.37
2018-03-11T03:44:38.531Z,46.30
2018-03-11T03:47:07.522Z,47.03
2018-03-11T03:49:36.920Z,40.73
2018-03-11T03:52:06.663Z,42.20
2018-03-11T03:54:35.635Z,39.97
2018-03-11T03:57:04.615Z,36.37
2018-03-11T03:59:33.582Z,37.80
2018-03-11T04:02:02.555Z,33.70
2018-03-11T04:04:32.327Z,32.97
2018-03-11T04:07:01.365Z,30.93
2018-03-11T04:09:30.709Z,29.87
2018-03-11T04:12:00.084Z,36.40
2018-03-11T04:14:29.149Z,36.87
2018-03-11T04:16:58.929Z,33.87
2018-03-11T04:19:27.911Z,33.80
2018-03-11T04:21:57.298Z,36.03
2018-03-11T04:24:26.758Z,36.90
2018-03-11T04:26:55.785Z,32.83
2018-03-11T04:29:25.490Z,28.20
2018-03-11T04:31:54.472Z,29.20
2018-03-11T04:34:23.426Z,28.40
2018-03-11T04:36:52.376Z,32.77
2018-03-11T04:39:21.351Z,35.53
2018-03-11T04:41:50.724Z,38.70
2018-03-11T04:44:20.513Z,35.77
2018-03-11T04:46:49.616Z,39.57
2018-03-11T04:49:18.836Z,32.00
2018-03-11T04:51:48.643Z,31.80
2018-03-11T04:54:17.574Z,31.00
2018-03-11T04:56:46.565Z,27.10
2018-03-11T04:59:15.555Z,31.80
2018-03-11T05:01:44.533Z,32.27
2018-03-11T05:04:13.868Z,32.93
2018-03-11T05:06:43.648Z,32.90
2018-03-11T05:09:12.568Z,32.40
2018-03-11T05:11:41.561Z,31.40
2018-03-11T05:14:10.927Z,28.60
2018-03-11T05:16:39.920Z,26.20
2018-03-11T05:19:09.709Z,26.87
2018-03-11T05:21:38.660Z,25.27
2018-03-11T05:24:07.627Z,24.90
2018-03-11T05:26:36.569Z,22.60
2018-03-11T05:29:05.594Z,23.30
2018-03-11T05:31:34.561Z,21.70
2018-03-11T05:34:04.322Z,24.60
2018-03-11T05:36:33.696Z,22.13
2018-03-11T05:39:02.651Z,20.33
2018-03-11T05:41:31.746Z,21.67
2018-03-11T05:44:00.700Z,21.57
2018-03-11T05:46:29.688Z,21.33
2018-03-11T05:48:58.621Z,21.80
2018-03-11T05:51:27.636Z,20.60
2018-03-11T05:53:57.386Z,18.47
2018-03-11T05:56:26.737Z,18.73
2018-03-11T05:58:56.478Z,19.57
2018-03-11T06:01:25.435Z,20.87
2018-03-11T06:03:54.418Z,18.43
2018-03-11T06:06:23.408Z,20.20
2018-03-11T06:08:52.383Z,21.40
2018-03-11T06:11:21.744Z,19.30
2018-03-11T06:13:50.739Z,20.17
2018-03-11T06:16:20.107Z,18.10
2018-03-11T06:18:49.049Z,17.60
2018-03-11T06:21:18.474Z,18.20
2018-03-11T06:23:47.847Z,16.47
2018-03-11T06:26:16.791Z,19.13
2018-03-11T06:28:45.804Z,19.57
2018-03-11T06:31:15.230Z,17.13
2018-03-11T06:33:44.590Z,18.60
2018-03-11T06:36:13.565Z,18.33
2018-03-11T06:38:42.791Z,18.70
2018-03-11T06:41:12.606Z,19.20
2018-03-11T06:43:42.387Z,19.80
2018-03-11T06:46:11.778Z,21.07
2018-03-11T06:48:41.501Z,16.57
2018-03-11T06:51:10.460Z,18.30
2018-03-11T06:53:39.528Z,16.40
2018-03-11T06:56:09.323Z,17.90
2018-03-11T06:58:39.189Z,20.77
2018-03-11T07:01:08.550Z,18.10
2018-03-11T07:03:37.501Z,19.40
2018-03-11T07:06:07.084Z,21.30
2018-03-11T07:08:38.010Z,16.77
2018-03-11T07:11:08.358Z,16.40
2018-03-11T07:13:38.824Z,17.90
2018-03-11T07:16:08.567Z,20.23
2018-03-11T07:18:39.143Z,19.87
2018-03-11T07:21:08.907Z,20.93
2018-03-11T07:23:38.448Z,22.53
2018-03-11T07:26:07.854Z,22.07
2018-03-11T07:28:37.703Z,21.10
2018-03-11T07:31:07.246Z,20.87
2018-03-11T07:33:36.272Z,21.70
2018-03-11T07:36:05.710Z,22.87
2018-03-11T07:38:36.463Z,21.87
2018-03-11T07:41:06.229Z,23.10
2018-03-11T07:43:37.169Z,21.80
2018-03-11T07:46:06.180Z,20.40
2018-03-11T07:48:37.428Z,20.10
2018-03-11T07:51:06.510Z,21.60
2018-03-11T07:53:35.607Z,21.23
2018-03-11T07:56:04.757Z,20.90
2018-03-11T07:58:33.982Z,21.23
2018-03-11T08:01:04.594Z,20.67
2018-03-11T08:03:34.562Z,20.80
2018-03-11T08:06:03.585Z,20.97
2018-03-11T08:08:32.666Z,20.60
2018-03-11T08:11:01.732Z,21.80
2018-03-11T08:13:31.602Z,21.83
2018-03-11T08:16:00.711Z,21.23
2018-03-11T08:18:29.705Z,20.53
2018-03-11T08:20:58.682Z,20.87
2018-03-11T08:23:28.202Z,20.17
2018-03-11T08:25:58.160Z,20.00
2018-03-11T08:28:27.657Z,20.50
2018-03-11T08:30:57.269Z,20.00
2018-03-11T08:33:26.923Z,19.60
2018-03-11T08:35:56.693Z,18.87
2018-03-11T08:38:26.576Z,18.27
2018-03-11T08:40:55.562Z,18.13
2018-03-11T08:43:25.007Z,17.50
2018-03-11T08:45:55.340Z,16.80
2018-03-11T08:48:24.401Z,18.17
2018-03-11T08:50:53.876Z,18.20
2018-03-11T08:53:23.286Z,18.37
2018-03-11T08:55:52.689Z,16.83
2018-03-11T08:58:23.172Z,17.20
2018-03-11T09:00:52.924Z,15.27
2018-03-11T09:03:22.771Z,16.90
2018-03-11T09:05:52.268Z,17.40
2018-03-11T09:08:22.020Z,15.63
2018-03-11T09:10:51.049Z,15.33
2018-03-11T09:13:20.054Z,16.63
2018-03-11T09:15:49.883Z,14.77
2018-03-11T09:18:19.673Z,15.60
2018-03-11T09:20:50.217Z,14.77
2018-03-11T09:23:20.127Z,15.40
2018-03-11T09:25:49.201Z,15.10
2018-03-11T09:28:18.599Z,14.03
2018-03-11T09:30:49.414Z,13.40
2018-03-11T09:33:19.168Z,13.03
2018-03-11T09:35:49.437Z,12.50
2018-03-11T09:38:18.510Z,11.50
2018-03-11T09:40:47.536Z,12.57
2018-03-11T09:43:16.626Z,11.17
2018-03-11T09:45:45.698Z,11.70
2018-03-11T09:48:15.116Z,10.57
2018-03-11T09:50:45.624Z,10.83
2018-03-11T09:53:15.559Z,11.70
2018-03-11T09:55:44.823Z,10.87
2018-03-11T09:58:13.867Z,10.40
2018-03-11T10:00:43.790Z,11.50
2018-03-11T10:03:13.509Z,10.70
2018-03-11T10:05:42.585Z,10.90
2018-03-11T10:08:11.721Z,11.17
2018-03-11T10:10:41.626Z,10.77
2018-03-11T10:13:11.570Z,10.30
2018-03-11T10:15:41.176Z,10.53
2018-03-11T10:18:11.039Z,11.30
2018-03-11T10:20:40.607Z,10.20
2018-03-11T10:23:09.661Z,10.47
2018-03-11T10:25:39.559Z,9.60
2018-03-11T10:28:08.635Z,10.83
2018-03-11T10:30:38.599Z,11.90
2018-03-11T10:33:08.178Z,9.90
2018-03-11T10:35:38.743Z,10.37
2018-03-11T10:38:08.588Z,10.47
2018-03-11T10:40:37.733Z,11.47
2018-03-11T10:43:06.787Z,10.17
2018-03-11T10:45:37.321Z,8.83
2018-03-11T10:48:07.842Z,10.00
2018-03-11T10:50:37.745Z,10.33
2018-03-11T10:53:07.718Z,10.67
2018-03-11T10:55:38.581Z,10.43
2018-03-11T10:58:08.401Z,10.20
2018-03-11T11:00:44.260Z,10.80
2018-03-11T11:03:17.481Z,10.77
2018-03-11T11:05:46.788Z,10.70
2018-03-11T11:08:15.998Z,9.93
2018-03-11T11:10:46.436Z,10.63
2018-03-11T11:13:16.462Z,9.53
2018-03-11T11:15:46.286Z,9.50
2018-03-11T11:18:16.086Z,9.23
2018-03-11T11:20:45.169Z,9.67
2018-03-11T11:23:15.024Z,10.80
2018-03-11T11:25:44.163Z,8.53
2018-03-11T11:28:13.690Z,10.53
2018-03-11T11:30:43.160Z,11.97
2018-03-11T11:33:13.047Z,9.77
2018-03-11T11:35:42.466Z,9.90
2018-03-11T11:38:12.274Z,10.80
2018-03-11T11:40:41.307Z,8.90
2018-03-11T11:43:10.403Z,10.13
2018-03-11T11:45:39.930Z,10.70
2018-03-11T11:48:08.965Z,9.40
2018-03-11T11:50:38.048Z,10.60
2018-03-11T11:53:09.031Z,9.63
2018-03-11T11:55:38.917Z,9.93
2018-03-11T11:58:08.507Z,10.17
2018-03-11T12:00:38.492Z,10.43
2018-03-11T12:03:07.938Z,9.63
2018-03-11T12:05:37.422Z,9.90
2018-03-11T12:08:07.280Z,9.90
2018-03-11T12:10:37.208Z,10.70
2018-03-11T12:13:07.646Z,9.33
2018-03-11T12:15:37.501Z,9.50
2018-03-11T12:18:07.806Z,9.70
2018-03-11T12:20:37.235Z,11.50
2018-03-11T12:23:07.384Z,10.50
2018-03-11T12:25:37.499Z,10.47
2018-03-11T12:28:07.337Z,11.27
2018-03-11T12:30:37.478Z,11.57
2018-03-11T12:33:06.884Z,11.20
2018-03-11T12:35:36.699Z,10.27
2018-03-11T12:38:07.323Z,10.30
2018-03-11T12:40:37.486Z,11.43
2018-03-11T12:43:07.855Z,10.30
2018-03-11T12:45:37.652Z,9.90
2018-03-11T12:48:07.453Z,9.47
2018-03-11T12:50:37.390Z,9.23
2018-03-11T12:53:06.861Z,10.23
2018-03-11T12:55:36.684Z,9.67
2018-03-11T12:58:06.515Z,9.03
2018-03-11T13:00:35.571Z,8.93
2018-03-11T13:03:05.211Z,8.70
2018-03-11T13:05:35.326Z,8.97
2018-03-11T13:08:04.729Z,9.07
2018-03-11T13:10:34.287Z,8.80
2018-03-11T13:13:03.317Z,9.03
2018-03-11T13:15:33.038Z,8.57
2018-03-11T13:18:02.035Z,8.30
2018-03-11T13:20:43.310Z,8.20
2018-03-11T13:23:12.313Z,7.90
2018-03-11T13:25:41.703Z,8.10
2018-03-11T13:28:22.597Z,7.73
2018-03-11T13:30:51.551Z,8.37
2018-03-11T13:33:33.158Z,8.07
2018-03-11T13:36:02.550Z,7.73
2018-03-11T13:38:44.141Z,7.87
2018-03-11T13:41:13.492Z,7.63
2018-03-11T13:43:42.482Z,8.30
2018-03-11T13:46:23.696Z,7.83
2018-03-11T13:48:53.476Z,8.47
2018-03-11T13:51:34.337Z,8.17
2018-03-11T13:54:03.334Z,7.90
2018-03-11T13:56:32.359Z,7.53
2018-03-11T13:59:02.107Z,9.37
2018-03-11T14:01:31.580Z,8.43
2018-03-11T14:04:01.472Z,8.27
2018-03-11T14:06:30.417Z,7.33
2018-03-11T14:08:59.498Z,7.87
2018-03-11T14:11:28.505Z,7.83
2018-03-11T14:13:57.982Z,7.73
2018-03-11T14:16:27.888Z,8.40
2018-03-11T14:18:57.274Z,7.90
2018-03-11T14:21:26.645Z,7.50
2018-03-11T14:23:56.468Z,7.83
2018-03-11T14:26:25.475Z,7.90
2018-03-11T14:28:54.418Z,6.90
2018-03-11T14:31:23.414Z,7.20
2018-03-11T14:33:52.792Z,7.40
2018-03-11T14:36:23.555Z,7.17
2018-03-11T14:38:52.611Z,6.80
2018-03-11T14:41:22.368Z,7.93
2018-03-11T14:43:52.128Z,7.93
2018-03-11T14:46:21.898Z,7.60
2018-03-11T14:48:50.902Z,7.60
2018-03-11T14:51:20.696Z,7.27
2018-03-11T14:53:49.677Z,7.87
2018-03-11T14:56:18.694Z,7.60
2018-03-11T14:58:47.674Z,8.23
2018-03-11T15:01:16.683Z,8.10
2018-03-11T15:03:45.698Z,7.23
2018-03-11T15:06:15.095Z,7.10
2018-03-11T15:08:44.450Z,8.37
2018-03-11T15:11:13.698Z,7.77
2018-03-11T15:13:43.477Z,7.80
2018-03-11T15:16:13.000Z,7.93
2018-03-11T15:18:43.574Z,7.63
2018-03-11T15:21:13.279Z,8.43
2018-03-11T15:23:43.024Z,8.10
2018-03-11T15:26:12.751Z,7.60
2018-03-11T15:28:43.028Z,8.60
2018-03-11T15:31:12.416Z,8.77
2018-03-11T15:33:41.785Z,8.23
2018-03-11T15:36:10.803Z,8.43
2018-03-11T15:38:40.158Z,7.17
2018-03-11T15:41:09.150Z,8.23
2018-03-11T15:43:38.130Z,8.50
2018-03-11T15:46:07.887Z,8.20
2018-03-11T15:48:37.655Z,7.93
2018-03-11T15:51:06.628Z,7.77
2018-03-11T15:53:36.395Z,8.80
2018-03-11T15:56:05.444Z,7.47
2018-03-11T15:58:34.470Z,7.90
2018-03-11T16:01:03.487Z,8.23
2018-03-11T16:03:33.346Z,7.87
2018-03-11T16:06:03.071Z,8.50
2018-03-11T16:08:32.065Z,7.73
2018-03-11T16:11:01.066Z,6.27
2018-03-11T16:13:30.218Z,4.70
2018-03-11T16:16:00.092Z,4.90
2018-03-11T16:18:29.847Z,4.63
2018-03-11T16:20:58.838Z,3.93
2018-03-11T16:23:28.589Z,4.70
2018-03-11T16:25:58.542Z,4.10
2018-03-11T16:28:27.528Z,4.20
2018-03-11T16:30:57.331Z,3.90
2018-03-11T16:33:26.388Z,3.90
2018-03-11T16:35:55.381Z,4.23
2018-03-11T16:38:24.367Z,4.10
2018-03-11T16:40:53.388Z,4.33
2018-03-11T16:43:22.348Z,4.50
2018-03-11T16:45:51.422Z,4.70
2018-03-11T16:48:20.388Z,4.17
2018-03-11T16:50:50.655Z,4.87
2018-03-11T16:53:19.637Z,4.13
2018-03-11T16:55:49.929Z,4.67
2018-03-11T16:58:19.638Z,4.63
2018-03-11T17:00:49.415Z,4.90
2018-03-11T17:03:18.401Z,5.20
2018-03-11T17:05:48.168Z,4.30
2018-03-11T17:08:17.615Z,5.30
2018-03-11T17:10:46.624Z,4.97
2018-03-11T17:13:15.600Z,4.67
2018-03-11T17:15:44.619Z,5.00
2018-03-11T17:18:14.496Z,4.80
2018-03-11T17:20:43.523Z,5.33
2018-03-11T17:23:13.029Z,4.60
2018-03-11T17:25:42.924Z,4.80
2018-03-11T17:28:11.917Z,3.77
2018-03-11T17:30:40.880Z,4.17
2018-03-11T17:33:10.645Z,4.07
2018-03-11T17:35:40.243Z,4.00
2018-03-11T17:38:09.624Z,4.43
2018-03-11T17:40:39.614Z,4.40
2018-03-11T17:43:09.391Z,4.27
2018-03-11T17:45:39.089Z,4.77
2018-03-11T17:48:08.454Z,5.27
2018-03-11T17:50:38.264Z,5.83
2018-03-11T17:53:08.052Z,5.73
2018-03-11T17:55:37.813Z,4.87
2018-03-11T17:58:08.436Z,4.17
2018-03-11T18:00:39.567Z,5.00
2018-03-11T18:03:08.988Z,4.90
2018-03-11T18:05:38.757Z,5.83
2018-03-11T18:08:08.527Z,5.37
2018-03-11T18:10:38.292Z,5.30
2018-03-11T18:13:07.676Z,4.90
2018-03-11T18:15:37.464Z,5.43
2018-03-11T18:18:06.440Z,5.47
2018-03-11T18:20:36.292Z,5.27
2018-03-11T18:23:06.164Z,6.30
2018-03-11T18:25:35.543Z,5.80
2018-03-11T18:28:06.613Z,5.53
2018-03-11T18:30:36.547Z,6.20
2018-03-11T18:33:06.400Z,6.93
2018-03-11T18:35:36.914Z,5.93
2018-03-11T18:38:05.985Z,6.70
2018-03-11T18:40:35.003Z,6.43
2018-03-11T18:43:04.015Z,6.50
2018-03-11T18:45:34.606Z,6.40
2018-03-11T18:48:04.344Z,6.80
2018-03-11T18:50:34.782Z,7.20
2018-03-11T18:53:03.808Z,7.80
2018-03-11T18:55:33.883Z,7.00
2018-03-11T18:58:03.673Z,9.00
2018-03-11T19:00:32.713Z,8.87
2018-03-11T19:03:01.738Z,8.80
2018-03-11T19:05:31.126Z,8.70
2018-03-11T19:08:00.524Z,9.57
2018-03-11T19:10:30.354Z,8.97
2018-03-11T19:13:00.596Z,9.47
2018-03-11T19:15:30.350Z,9.60
2018-03-11T19:17:59.766Z,10.33
2018-03-11T19:20:29.666Z,10.23
2018-03-11T19:22:59.953Z,10.87
2018-03-11T19:25:29.004Z,9.90
2018-03-11T19:27:58.590Z,9.10
2018-03-11T19:30:28.386Z,9.17
2018-03-11T19:32:58.188Z,10.10
2018-03-11T19:35:27.600Z,9.67
2018-03-11T19:37:56.649Z,9.50
2018-03-11T19:40:25.648Z,9.00
2018-03-11T19:42:55.931Z,10.07
2018-03-11T19:45:25.314Z,9.03
2018-03-11T19:47:54.737Z,9.87
2018-03-11T19:50:24.238Z,9.17
2018-03-11T19:52:54.003Z,9.70
2018-03-11T19:55:23.807Z,9.10
2018-03-11T19:57:54.414Z,10.70
2018-03-11T20:00:23.421Z,9.50
2018-03-11T20:02:52.850Z,9.47
2018-03-11T20:05:22.624Z,8.87
2018-03-11T20:07:52.372Z,10.70
2018-03-11T20:10:21.372Z,10.93
2018-03-11T20:12:51.198Z,10.97
2018-03-11T20:15:21.138Z,10.50
2018-03-11T20:17:53.553Z,10.60
2018-03-11T20:20:22.790Z,10.83
2018-03-11T20:22:52.975Z,10.70
2018-03-11T20:25:23.095Z,11.47
2018-03-11T20:27:52.549Z,11.23
2018-03-11T20:30:21.646Z,11.37
2018-03-11T20:32:50.700Z,11.40
2018-03-11T20:35:19.703Z,12.30
2018-03-11T20:37:49.469Z,12.20
2018-03-11T20:40:19.498Z,11.87
2018-03-11T20:42:48.500Z,10.63
2018-03-11T20:45:17.961Z,10.80
2018-03-11T20:47:47.294Z,10.67
2018-03-11T20:50:17.058Z,11.30
2018-03-11T20:52:46.841Z,9.90
2018-03-11T20:55:16.624Z,9.40
2018-03-11T20:57:46.366Z,10.30
2018-03-11T21:00:15.805Z,9.03
2018-03-11T21:02:45.597Z,8.27
2018-03-11T21:05:16.325Z,8.43
2018-03-11T21:07:45.699Z,9.03
2018-03-11T21:10:14.752Z,8.60
2018-03-11T21:12:44.791Z,10.10
2018-03-11T21:15:14.586Z,10.87
2018-03-11T21:17:44.371Z,10.43
2018-03-11T21:20:13.937Z,10.37
2018-03-11T21:22:43.725Z,12.37
2018-03-11T21:25:13.349Z,10.37
2018-03-11T21:27:42.722Z,13.73
2018-03-11T21:30:12.195Z,12.40
2018-03-11T21:32:41.973Z,11.87
2018-03-11T21:35:11.727Z,13.43
2018-03-11T21:37:41.450Z,13.63
2018-03-11T21:40:10.452Z,12.37
2018-03-11T21:42:39.431Z,13.03
2018-03-11T21:45:09.018Z,11.70
2018-03-11T21:47:38.310Z,11.93
2018-03-11T21:50:07.260Z,11.70
2018-03-11T21:52:37.831Z,12.53
2018-03-11T21:55:07.574Z,12.17
2018-03-11T21:57:37.353Z,12.80
2018-03-11T22:00:07.490Z,12.50
2018-03-11T22:02:36.872Z,11.30
2018-03-11T22:05:06.724Z,13.00
2018-03-11T22:07:35.699Z,12.10
2018-03-11T22:10:04.684Z,13.67
2018-03-11T22:12:34.419Z,11.53
2018-03-11T22:15:04.214Z,11.20
2018-03-11T22:17:33.646Z,11.50
2018-03-11T22:20:03.015Z,11.67
2018-03-11T22:22:32.910Z,11.97
2018-03-11T22:25:02.254Z,11.27
2018-03-11T22:27:31.629Z,11.70
2018-03-11T22:30:00.567Z,11.70
2018-03-11T22:32:29.515Z,11.80
2018-03-11T22:34:58.500Z,12.57
2018-03-11T22:37:27.476Z,11.87
2018-03-11T22:39:57.298Z,10.50
2018-03-11T22:42:26.649Z,9.80
2018-03-11T22:44:56.391Z,10.83
2018-03-11T22:47:25.345Z,10.70
2018-03-11T22:49:54.345Z,11.57
2018-03-11T22:52:23.381Z,11.10
2018-03-11T22:54:52.333Z,10.00
2018-03-11T22:57:21.276Z,10.57
2018-03-11T22:59:50.268Z,10.30
2018-03-11T23:02:19.745Z,10.20
2018-03-11T23:04:48.672Z,9.60
2018-03-11T23:07:18.397Z,9.27
2018-03-11T23:09:48.509Z,9.70
2018-03-11T23:12:17.502Z,9.30
2018-03-11T23:14:46.461Z,9.13
2018-03-11T23:17:16.965Z,8.47
2018-03-11T23:19:45.938Z,9.60
2018-03-11T23:22:15.654Z,9.97
2018-03-11T23:24:44.614Z,8.70
2018-03-11T23:27:14.341Z,9.60
2018-03-11T23:29:43.341Z,8.27
2018-03-11T23:32:13.045Z,9.20
2018-03-11T23:34:42.032Z,9.27
2018-03-11T23:37:11.802Z,8.87
2018-03-11T23:39:41.533Z,8.60
2018-03-11T23:42:10.896Z,8.30
2018-03-11T23:44:40.637Z,8.57
2018-03-11T23:47:09.639Z,8.60
2018-03-11T23:49:38.640Z,9.60
2018-03-11T23:52:07.584Z,8.60
2018-03-11T23:54:36.538Z,7.90
2018-03-11T23:57:06.362Z,9.60
2018-03-11T23:59:36.649Z,8.53
